KALX/ALX METAR and TAF weather

Enter ICAO airport designator
Station Type Date Time Source
KALX METAR 2018/04/27 00:55 UTC NOAA

KALX 270055Z AUTO 28004KT 10SM CLR 15/13 A2985 RMK AO2 T01520130


Station Type Date Time Source
KALX Decoded METAR 2018/04/27 00:55 UTC NOAA

Alexander City, Thomas C Russell Field Airport, AL, United States (KALX) 32-54-53N 085-57-46W
Apr 26, 2018 - 08:55 PM EDT / 2018.04.27 0055 UTC
Wind: from the W (280 degrees) at 5 MPH (4 KT):0
Visibility: 10 mile(s):0
Sky conditions: clear
Temperature: 59.4 F (15.2 C)
Dew Point: 55.4 F (13.0 C)
Relative Humidity: 86%
Pressure (altimeter): 29.85 in. Hg (1010 hPa)
ob: KALX 270055Z AUTO 28004KT 10SM CLR 15/13 A2985 RMK AO2 T01520130
cycle: 1

Station Type Date Time Source
KALX TAF UTC NOAA

Error!


Example: see airport list